createdAt,value
2022-10-14T00:02:08.863Z,100.00
2022-10-14T00:05:11.934Z,100.00
2022-10-14T00:08:16.387Z,100.00
2022-10-14T00:11:21.136Z,100.00
2022-10-14T00:14:23.947Z,100.00
2022-10-14T00:17:27.066Z,100.00
2022-10-14T00:20:30.458Z,100.00
2022-10-14T00:23:34.935Z,100.00
2022-10-14T00:26:39.349Z,100.00
2022-10-14T00:29:42.343Z,100.00
2022-10-14T00:32:45.260Z,100.00
2022-10-14T00:35:54.910Z,100.00
2022-10-14T00:38:59.329Z,100.00
2022-10-14T00:42:02.011Z,100.00
2022-10-14T00:45:14.214Z,100.00
2022-10-14T00:48:18.890Z,100.00
2022-10-14T00:51:22.850Z,100.00
2022-10-14T00:54:31.095Z,100.00
2022-10-14T00:57:34.524Z,100.00
2022-10-14T01:00:38.565Z,100.00
2022-10-14T01:03:41.934Z,100.00
2022-10-14T01:06:56.521Z,100.00
2022-10-14T01:10:08.207Z,100.00
2022-10-14T01:13:26.868Z,100.00
2022-10-14T01:16:41.464Z,100.00
2022-10-14T01:20:17.295Z,100.00
2022-10-14T01:23:38.242Z,100.00
2022-10-14T01:27:17.375Z,100.00
2022-10-14T01:30:22.441Z,100.00
2022-10-14T01:33:27.790Z,100.00
2022-10-14T01:36:35.058Z,100.00
2022-10-14T01:39:44.537Z,100.00
2022-10-14T01:42:48.796Z,100.00
2022-10-14T01:45:55.422Z,100.00
2022-10-14T01:49:03.197Z,100.00
2022-10-14T01:52:11.257Z,100.00
2022-10-14T01:55:19.014Z,100.00
2022-10-14T01:58:26.741Z,100.00
2022-10-14T02:01:31.308Z,100.00
2022-10-14T02:04:34.087Z,100.00
2022-10-14T02:07:41.150Z,100.00
2022-10-14T02:11:06.476Z,100.00
2022-10-14T02:14:18.000Z,100.00
2022-10-14T02:17:31.115Z,100.00
2022-10-14T02:20:38.455Z,100.00
2022-10-14T02:23:46.739Z,100.00
2022-10-14T02:26:51.784Z,100.00
2022-10-14T02:29:56.703Z,100.00
2022-10-14T02:33:03.012Z,100.00
2022-10-14T02:36:08.991Z,100.00
2022-10-14T02:39:16.178Z,100.00
2022-10-14T02:42:19.310Z,100.00
2022-10-14T02:45:25.679Z,100.00
2022-10-14T02:48:29.785Z,100.00
2022-10-14T02:51:32.521Z,100.00
2022-10-14T02:54:35.475Z,100.00
2022-10-14T02:57:38.553Z,100.00
2022-10-14T03:00:41.268Z,100.00
2022-10-14T03:03:45.626Z,100.00
2022-10-14T03:06:48.335Z,100.00
2022-10-14T03:09:51.225Z,100.00
2022-10-14T03:12:54.419Z,100.00
2022-10-14T03:15:57.149Z,100.00
2022-10-14T03:19:01.828Z,100.00
2022-10-14T03:22:05.019Z,100.00
2022-10-14T03:25:09.241Z,100.00
2022-10-14T03:28:13.216Z,100.00
2022-10-14T03:31:15.979Z,100.00
2022-10-14T03:34:20.453Z,100.00
2022-10-14T03:37:23.526Z,100.00
2022-10-14T03:40:26.605Z,100.00
2022-10-14T03:43:29.653Z,100.00
2022-10-14T03:46:32.743Z,100.00
2022-10-14T03:49:37.204Z,100.00
2022-10-14T03:52:44.881Z,100.00
2022-10-14T03:55:49.291Z,100.00
2022-10-14T03:58:52.402Z,100.00
2022-10-14T04:01:55.269Z,100.00
2022-10-14T04:05:01.054Z,100.00
2022-10-14T04:08:06.026Z,100.00
2022-10-14T04:11:08.798Z,100.00
2022-10-14T04:14:11.746Z,100.00
2022-10-14T04:17:14.693Z,100.00
2022-10-14T04:20:19.391Z,100.00
2022-10-14T04:23:22.409Z,100.00
2022-10-14T04:26:25.368Z,100.00
2022-10-14T04:29:28.412Z,100.00
2022-10-14T04:32:31.129Z,100.00
2022-10-14T04:35:35.784Z,100.00
2022-10-14T04:38:38.496Z,100.00
2022-10-14T04:41:41.415Z,100.00
2022-10-14T04:44:44.155Z,100.00
2022-10-14T04:47:48.757Z,100.00
2022-10-14T04:50:53.546Z,100.00
2022-10-14T04:53:57.591Z,100.00
2022-10-14T04:57:00.755Z,100.00
2022-10-14T05:00:04.371Z,100.00
2022-10-14T05:03:07.315Z,100.00
2022-10-14T05:06:11.496Z,100.00
2022-10-14T05:09:14.579Z,100.00
2022-10-14T05:12:17.605Z,100.00
2022-10-14T05:15:20.343Z,100.00
2022-10-14T05:18:23.330Z,100.00
2022-10-14T05:21:27.468Z,100.00
2022-10-14T05:24:30.637Z,100.00
2022-10-14T05:27:33.331Z,100.00
2022-10-14T05:30:36.274Z,100.00
2022-10-14T05:33:39.014Z,100.00
2022-10-14T05:36:43.153Z,100.00
2022-10-14T05:39:46.184Z,100.00
2022-10-14T05:42:48.929Z,100.00
2022-10-14T05:45:52.513Z,100.00
2022-10-14T05:48:55.232Z,100.00
2022-10-14T05:51:59.554Z,100.00
2022-10-14T05:55:03.256Z,100.00
2022-10-14T05:58:06.004Z,100.00
2022-10-14T06:01:11.287Z,100.00
2022-10-14T06:04:18.941Z,100.00
2022-10-14T06:07:23.340Z,100.00
2022-10-14T06:10:27.185Z,100.00
2022-10-14T06:13:30.259Z,100.00
2022-10-14T06:16:33.125Z,100.00
2022-10-14T06:19:36.142Z,100.00
2022-10-14T06:22:40.916Z,100.00
2022-10-14T06:25:43.747Z,100.00
2022-10-14T06:28:46.975Z,100.00
2022-10-14T06:31:49.967Z,100.00
2022-10-14T06:34:52.643Z,100.00
2022-10-14T06:37:57.053Z,100.00
2022-10-14T06:41:00.087Z,100.00
2022-10-14T06:44:03.739Z,100.00
2022-10-14T06:47:07.928Z,100.00
2022-10-14T06:50:11.142Z,100.00
2022-10-14T06:53:15.260Z,100.00
2022-10-14T06:56:18.141Z,100.00
2022-10-14T06:59:21.162Z,100.00
2022-10-14T07:02:24.177Z,100.00
2022-10-14T07:05:27.748Z,100.00
2022-10-14T07:08:31.809Z,100.00
2022-10-14T07:11:34.767Z,100.00
2022-10-14T07:14:37.847Z,100.00
2022-10-14T07:17:40.653Z,100.00
2022-10-14T07:20:43.793Z,100.00
2022-10-14T07:23:48.067Z,100.00
2022-10-14T07:26:51.506Z,100.00
2022-10-14T07:29:54.533Z,100.00
2022-10-14T07:32:57.773Z,100.00
2022-10-14T07:36:03.222Z,100.00
2022-10-14T07:39:07.829Z,100.00
2022-10-14T07:42:10.594Z,100.00
2022-10-14T07:45:16.687Z,100.00
2022-10-14T07:48:27.267Z,100.00
2022-10-14T07:51:36.544Z,100.00
2022-10-14T07:54:40.842Z,100.00
2022-10-14T07:57:44.061Z,100.00
2022-10-14T08:00:47.121Z,100.00
2022-10-14T08:03:50.204Z,100.00
2022-10-14T08:06:53.885Z,100.00
2022-10-14T08:09:58.194Z,100.00
2022-10-14T08:13:01.875Z,100.00
2022-10-14T08:16:13.316Z,100.00
2022-10-14T08:19:16.369Z,100.00
2022-10-14T08:22:19.405Z,100.00
2022-10-14T08:25:24.033Z,100.00
2022-10-14T08:28:26.836Z,100.00
2022-10-14T08:31:30.108Z,100.00
2022-10-14T08:34:33.956Z,99.74
2022-10-14T08:37:37.021Z,100.00
2022-10-14T08:40:55.893Z,98.97
2022-10-14T08:44:12.425Z,98.88
2022-10-14T08:47:17.500Z,98.37
2022-10-14T08:50:34.603Z,98.68
2022-10-14T08:53:41.771Z,98.24
2022-10-14T08:56:46.356Z,98.17
2022-10-14T08:59:50.192Z,97.36
2022-10-14T09:02:53.381Z,97.92
2022-10-14T09:06:00.733Z,97.48
2022-10-14T09:09:09.119Z,97.47
2022-10-14T09:12:17.806Z,96.92
2022-10-14T09:15:28.863Z,95.46
2022-10-14T09:18:38.546Z,95.37
2022-10-14T09:21:52.585Z,93.19
2022-10-14T09:24:56.448Z,91.82
2022-10-14T09:28:01.017Z,92.44
2022-10-14T09:31:03.893Z,90.16
2022-10-14T09:34:07.905Z,89.76
2022-10-14T09:37:25.862Z,89.39
2022-10-14T09:40:34.075Z,89.22
2022-10-14T09:46:51.238Z,88.92
2022-10-14T09:49:54.685Z,88.44
2022-10-14T09:53:02.725Z,88.96
2022-10-14T09:56:08.604Z,89.26
2022-10-14T09:59:18.852Z,89.94
2022-10-14T10:02:25.706Z,89.30
2022-10-14T10:05:30.784Z,88.57
2022-10-14T10:08:35.576Z,87.79
2022-10-14T10:11:40.499Z,88.20
2022-10-14T10:14:57.561Z,88.95
2022-10-14T10:18:00.711Z,88.76
2022-10-14T10:21:12.920Z,89.19
2022-10-14T10:24:24.790Z,88.68
2022-10-14T10:27:35.678Z,88.87
2022-10-14T10:30:46.652Z,89.21
2022-10-14T10:33:57.656Z,86.93
2022-10-14T10:37:08.739Z,86.76
2022-10-14T10:40:41.213Z,87.99
2022-10-14T10:43:59.644Z,87.51
2022-10-14T10:47:20.815Z,85.89
2022-10-14T10:50:31.131Z,85.63
2022-10-14T10:53:54.082Z,85.42
2022-10-14T10:57:00.800Z,84.03
2022-10-14T11:00:09.760Z,83.46
2022-10-14T11:03:34.249Z,83.67
2022-10-14T11:07:03.225Z,82.63
2022-10-14T11:10:34.963Z,79.23
2022-10-14T11:13:47.631Z,78.92
2022-10-14T11:16:56.417Z,79.31
2022-10-14T11:20:09.541Z,77.97
2022-10-14T11:23:40.023Z,78.69
2022-10-14T11:27:08.849Z,78.66
2022-10-14T11:30:16.847Z,78.42
2022-10-14T11:33:38.945Z,78.05
2022-10-14T11:36:55.653Z,77.92
2022-10-14T11:40:03.102Z,77.75
2022-10-14T11:43:16.835Z,76.00
2022-10-14T11:46:22.350Z,76.44
2022-10-14T11:49:30.150Z,75.70
2022-10-14T11:52:42.246Z,74.21
2022-10-14T11:55:49.768Z,74.21
2022-10-14T11:58:54.709Z,74.18
2022-10-14T12:02:05.080Z,74.14
2022-10-14T12:05:17.853Z,73.61
2022-10-14T12:08:33.230Z,73.80
2022-10-14T12:11:43.724Z,74.15
2022-10-14T12:14:51.146Z,74.42
2022-10-14T12:17:57.009Z,74.21
2022-10-14T12:21:06.002Z,74.28
2022-10-14T12:24:14.808Z,74.85
2022-10-14T12:27:20.045Z,74.74
2022-10-14T12:30:34.921Z,75.81
2022-10-14T12:34:26.852Z,76.73
2022-10-14T12:37:51.886Z,77.31
2022-10-14T12:40:56.326Z,77.54
2022-10-14T12:44:01.904Z,77.73
2022-10-14T12:47:06.155Z,78.25
2022-10-14T12:50:30.379Z,78.72
2022-10-14T12:53:34.542Z,78.94
2022-10-14T12:56:45.815Z,79.74
2022-10-14T12:59:52.382Z,80.37
2022-10-14T13:02:57.730Z,80.59
2022-10-14T13:06:29.933Z,81.09
2022-10-14T13:09:35.311Z,81.41
2022-10-14T13:12:48.447Z,81.67
2022-10-14T13:15:52.752Z,82.14
2022-10-14T13:18:57.963Z,82.54
2022-10-14T13:22:01.400Z,82.81
2022-10-14T13:25:12.081Z,83.16
2022-10-14T13:28:25.675Z,83.24
2022-10-14T13:31:35.691Z,83.21
2022-10-14T13:34:52.530Z,83.76
2022-10-14T13:37:59.838Z,83.96
2022-10-14T13:41:11.116Z,84.21
2022-10-14T13:44:15.340Z,84.37
2022-10-14T13:47:23.064Z,84.57
2022-10-14T13:50:34.050Z,84.83
2022-10-14T13:53:36.802Z,85.37
2022-10-14T13:56:39.539Z,85.74
2022-10-14T14:00:11.680Z,85.62
2022-10-14T14:03:17.712Z,85.88
2022-10-14T14:06:22.886Z,85.49
2022-10-14T14:09:28.290Z,85.68
2022-10-14T14:12:31.185Z,85.67
2022-10-14T14:15:36.805Z,85.21
2022-10-14T14:18:56.269Z,85.31
2022-10-14T14:22:08.378Z,85.91
2022-10-14T14:25:33.526Z,86.17
2022-10-14T14:28:37.628Z,86.98
2022-10-14T14:35:07.952Z,88.48
2022-10-14T14:38:25.533Z,88.48
2022-10-14T14:41:29.766Z,89.46
2022-10-14T14:44:34.907Z,89.95
2022-10-14T14:47:39.774Z,90.41
2022-10-14T14:50:45.364Z,90.37
2022-10-14T14:53:52.693Z,90.57
2022-10-14T14:57:02.285Z,91.15
2022-10-14T15:00:07.686Z,90.96
2022-10-14T15:03:11.862Z,91.23
2022-10-14T15:06:18.090Z,90.91
2022-10-14T15:09:25.220Z,90.57
2022-10-14T15:12:31.107Z,90.79
2022-10-14T15:15:35.150Z,91.18
2022-10-14T15:18:41.139Z,91.73
2022-10-14T15:21:47.723Z,91.71
2022-10-14T15:24:58.567Z,91.71
2022-10-14T15:28:02.194Z,91.65
2022-10-14T15:31:05.814Z,91.60
2022-10-14T15:34:18.560Z,91.75
2022-10-14T15:37:21.691Z,92.09
2022-10-14T15:40:28.563Z,92.15
2022-10-14T15:43:31.936Z,92.74
2022-10-14T15:46:55.418Z,92.41
2022-10-14T15:49:59.555Z,92.36
2022-10-14T15:53:02.309Z,92.03
2022-10-14T15:56:05.184Z,92.25
2022-10-14T15:59:07.878Z,92.26
2022-10-14T16:02:17.731Z,92.14
2022-10-14T16:05:22.578Z,92.16
2022-10-14T16:08:25.321Z,92.29
2022-10-14T16:11:30.790Z,92.78
2022-10-14T16:14:33.539Z,92.86
2022-10-14T16:17:36.532Z,93.01
2022-10-14T16:20:40.675Z,93.31
2022-10-14T16:23:43.967Z,93.35
2022-10-14T16:26:47.329Z,92.95
2022-10-14T16:29:50.090Z,93.13
2022-10-14T16:32:52.845Z,93.14
2022-10-14T16:36:00.085Z,93.08
2022-10-14T16:39:03.793Z,93.16
2022-10-14T16:42:07.317Z,92.93
2022-10-14T16:45:11.867Z,92.92
2022-10-14T16:48:14.565Z,92.98
2022-10-14T16:54:27.368Z,92.89
2022-10-14T16:57:30.113Z,93.15
2022-10-14T17:00:33.355Z,93.12
2022-10-14T17:03:36.599Z,93.19
2022-10-14T17:06:41.126Z,93.31
2022-10-14T17:09:43.937Z,93.14
2022-10-14T17:12:46.973Z,93.35
2022-10-14T17:15:49.684Z,93.44
2022-10-14T17:18:52.825Z,93.42
2022-10-14T17:21:56.962Z,93.65
2022-10-14T17:25:00.301Z,93.78
2022-10-14T17:28:03.447Z,94.04
2022-10-14T17:31:10.032Z,94.01
2022-10-14T17:34:12.929Z,94.25
2022-10-14T17:37:19.338Z,94.32
2022-10-14T17:40:22.134Z,94.33
2022-10-14T17:43:25.851Z,94.24
2022-10-14T17:46:31.377Z,94.47
2022-10-14T17:49:34.249Z,94.51
2022-10-14T17:52:38.320Z,94.63
2022-10-14T17:55:41.453Z,94.97
2022-10-14T17:58:44.475Z,95.22
2022-10-14T18:02:02.274Z,95.33
2022-10-14T18:05:06.442Z,95.41
2022-10-14T18:08:11.650Z,95.57
2022-10-14T18:11:14.648Z,95.85
2022-10-14T18:14:17.374Z,96.04
2022-10-14T18:17:20.227Z,96.26
2022-10-14T18:20:23.228Z,96.44
2022-10-14T18:23:27.642Z,96.57
2022-10-14T18:26:30.449Z,96.19
2022-10-14T18:29:33.168Z,96.01
2022-10-14T18:32:36.276Z,95.91
2022-10-14T18:35:38.987Z,95.37
2022-10-14T18:38:43.952Z,95.14
2022-10-14T18:41:47.044Z,95.13
2022-10-14T18:44:50.480Z,94.85
2022-10-14T18:47:53.572Z,94.73
2022-10-14T18:50:58.524Z,95.27
2022-10-14T18:54:04.287Z,95.88
2022-10-14T18:57:07.084Z,96.00
2022-10-14T19:00:13.551Z,96.15
2022-10-14T19:03:18.641Z,96.35
2022-10-14T19:06:22.293Z,96.45
2022-10-14T19:09:29.620Z,96.52
2022-10-14T19:12:44.581Z,96.65
2022-10-14T19:15:53.816Z,96.37
2022-10-14T19:18:58.159Z,96.88
2022-10-14T19:22:01.028Z,96.98
2022-10-14T19:25:05.512Z,97.29
2022-10-14T19:28:09.615Z,97.26
2022-10-14T19:31:14.773Z,97.21
2022-10-14T19:34:17.880Z,98.10
2022-10-14T19:37:20.822Z,98.99
2022-10-14T19:40:25.183Z,99.58
2022-10-14T19:43:29.092Z,99.74
2022-10-14T19:46:32.252Z,99.78
2022-10-14T19:49:34.993Z,99.91
2022-10-14T19:52:37.732Z,100.00
2022-10-14T19:55:42.219Z,100.00
2022-10-14T19:58:45.365Z,100.00
2022-10-14T20:01:48.433Z,100.00
2022-10-14T20:04:51.195Z,100.00
2022-10-14T20:07:54.601Z,100.00
2022-10-14T20:11:02.603Z,100.00
2022-10-14T20:14:05.370Z,100.00
2022-10-14T20:17:08.127Z,100.00
2022-10-14T20:20:11.744Z,100.00
2022-10-14T20:23:15.193Z,100.00
2022-10-14T20:26:21.310Z,100.00
2022-10-14T20:29:24.400Z,100.00
2022-10-14T20:32:27.171Z,100.00
2022-10-14T20:35:30.044Z,100.00
2022-10-14T20:38:33.039Z,100.00
2022-10-14T20:41:37.209Z,100.00
2022-10-14T20:44:39.903Z,100.00
2022-10-14T20:47:42.848Z,100.00
2022-10-14T20:50:45.532Z,100.00
2022-10-14T20:53:48.218Z,100.00
2022-10-14T20:56:52.378Z,100.00
2022-10-14T20:59:55.085Z,100.00
2022-10-14T21:02:58.630Z,100.00
2022-10-14T21:06:03.370Z,100.00
2022-10-14T21:09:07.999Z,100.00
2022-10-14T21:12:12.475Z,100.00
2022-10-14T21:15:15.161Z,100.00
2022-10-14T21:18:17.886Z,100.00
2022-10-14T21:21:20.576Z,100.00
2022-10-14T21:24:25.475Z,100.00
2022-10-14T21:27:29.503Z,100.00
2022-10-14T21:30:32.259Z,100.00
2022-10-14T21:33:35.465Z,100.00
2022-10-14T21:36:39.380Z,100.00
2022-10-14T21:39:42.365Z,100.00
2022-10-14T21:42:46.416Z,100.00
2022-10-14T21:45:49.345Z,100.00
2022-10-14T21:48:55.829Z,100.00
2022-10-14T21:51:58.541Z,100.00
2022-10-14T21:55:01.289Z,100.00
2022-10-14T21:58:05.624Z,100.00
2022-10-14T22:01:10.871Z,100.00
2022-10-14T22:04:13.937Z,100.00
2022-10-14T22:07:16.615Z,100.00
2022-10-14T22:10:37.100Z,100.00
2022-10-14T22:13:41.580Z,100.00
2022-10-14T22:16:44.794Z,100.00
2022-10-14T22:19:47.922Z,100.00
2022-10-14T22:22:50.959Z,100.00
2022-10-14T22:25:53.936Z,100.00
2022-10-14T22:29:02.992Z,100.00
2022-10-14T22:32:06.163Z,100.00
2022-10-14T22:35:09.844Z,100.00
2022-10-14T22:38:12.584Z,100.00
2022-10-14T22:41:17.657Z,100.00
2022-10-14T22:44:22.148Z,100.00
2022-10-14T22:47:25.654Z,100.00
2022-10-14T22:50:28.896Z,100.00
2022-10-14T22:53:32.053Z,100.00
2022-10-14T22:56:34.990Z,100.00
2022-10-14T22:59:39.342Z,100.00
2022-10-14T23:02:42.805Z,100.00
2022-10-14T23:05:45.809Z,100.00
2022-10-14T23:08:48.540Z,100.00
2022-10-14T23:11:51.618Z,100.00
2022-10-14T23:14:56.030Z,100.00
2022-10-14T23:17:58.876Z,100.00
2022-10-14T23:21:08.421Z,100.00
2022-10-14T23:24:12.785Z,100.00
2022-10-14T23:27:15.644Z,100.00
2022-10-14T23:30:20.213Z,100.00
2022-10-14T23:33:23.063Z,100.00
2022-10-14T23:36:26.437Z,100.00
2022-10-14T23:39:29.348Z,100.00
2022-10-14T23:42:32.166Z,100.00
2022-10-14T23:45:36.537Z,100.00
2022-10-14T23:48:39.537Z,100.00
2022-10-14T23:51:42.372Z,100.00
2022-10-14T23:54:45.208Z,100.00
2022-10-14T23:57:47.997Z,100.00
